Time;durP1;ratioP1;P1;durP2;ratioP2;P2;SDS_P1;SDS_P2;PMS_P1;PMS_P2;Temp;Humidity;BMP_temperature;BMP_pressure;BME280_temperature;BME280_humidity;BME280_pressure;Samples;Min_cycle;Max_cycle;Signal;HPM_P1;HPM_P2
2022/05/11 00:00:30;;;;;;;9.73;3.20;;;;;;;;;;4932687;29;20240;-75
2022/05/11 00:02:57;;;;;;;10.40;3.70;;;;;;;;;;4933013;29;20230;-74
2022/05/11 00:05:24;;;;;;;7.27;3.30;;;;;;;;;;4933425;29;20302;-74
2022/05/11 00:07:53;;;;;;;13.17;3.87;;;;;;;;;;4932999;29;20269;-74
2022/05/11 00:10:20;;;;;;;7.50;3.20;;;;;;;;;;4933901;29;20241;-74
2022/05/11 00:12:48;;;;;;;8.30;4.10;;;;;;;;;;4933532;29;20222;-74
2022/05/11 00:15:16;;;;;;;8.03;3.40;;;;;;;;;;4933410;29;20295;-74
2022/05/11 00:17:43;;;;;;;10.80;3.93;;;;;;;;;;4933063;29;20628;-74
2022/05/11 00:20:11;;;;;;;10.23;3.23;;;;;;;;;;4932810;29;20205;-74
2022/05/11 00:22:39;;;;;;;8.10;3.40;;;;;;;;;;4933261;29;20242;-73
2022/05/11 00:25:09;;;;;;;7.10;2.90;;;;;;;;;;4933351;29;20249;-73
2022/05/11 00:27:36;;;;;;;9.53;3.33;;;;;;;;;;4934035;29;20239;-73
2022/05/11 00:30:04;;;;;;;7.33;3.23;;;;;;;;;;4932969;29;20205;-73
2022/05/11 00:32:31;;;;;;;9.27;3.53;;;;;;;;;;4933365;29;20230;-73
2022/05/11 00:34:58;;;;;;;10.50;3.57;;;;;;;;;;4932775;29;20311;-73
2022/05/11 00:37:26;;;;;;;9.80;3.07;;;;;;;;;;4932995;29;20282;-74
2022/05/11 11:30:21;;;;;;;1.85;0.60;;;;;;;;;;4809058;23;20224;-74
2022/05/11 11:33:03;;;;;;;2.72;0.80;;;;;;;;;;4917505;29;20851;-74
2022/05/11 11:35:34;;;;;;;4.07;0.80;;;;;;;;;;4924811;29;20310;-75
2022/05/11 11:38:02;;;;;;;3.55;0.70;;;;;;;;;;4919778;29;20698;-76
2022/05/11 11:40:31;;;;;;;4.25;0.85;;;;;;;;;;4923750;29;20286;-75
2022/05/11 11:43:38;;;;;;;3.08;0.90;;;;;;;;;;4931348;29;20287;-75
2022/05/11 11:46:08;;;;;;;3.03;0.68;;;;;;;;;;4915839;29;20210;-75
2022/05/11 11:48:38;;;;;;;3.70;0.80;;;;;;;;;;4915200;29;20236;-75
2022/05/11 11:51:07;;;;;;;1.98;0.88;;;;;;;;;;4916247;29;20218;-75
2022/05/11 11:53:36;;;;;;;1.55;0.93;;;;;;;;;;4922413;29;20311;-75
2022/05/11 11:56:22;;;;;;;2.17;0.70;;;;;;;;;;4894186;29;20664;-75
2022/05/11 11:59:03;;;;;;;3.10;0.90;;;;;;;;;;4913398;29;20236;-76
2022/05/11 12:01:31;;;;;;;2.15;0.75;;;;;;;;;;4915648;29;20208;-76
2022/05/11 12:04:02;;;;;;;3.55;0.85;;;;;;;;;;4906954;29;20287;-74
2022/05/11 12:15:02;;;;;;;2.33;0.93;;;;;;;;;;4914522;29;20295;-76
2022/05/11 12:17:34;;;;;;;2.17;0.80;;;;;;;;;;4914491;29;20731;-75
2022/05/11 12:20:06;;;;;;;2.33;0.88;;;;;;;;;;4917541;29;20302;-74
2022/05/11 12:22:38;;;;;;;2.47;0.80;;;;;;;;;;4921687;29;20204;-76
2022/05/11 12:25:09;;;;;;;4.47;0.93;;;;;;;;;;4916586;29;20224;-75
2022/05/11 12:27:38;;;;;;;3.78;0.98;;;;;;;;;;4917618;29;20205;-74
2022/05/11 12:30:07;;;;;;;1.92;0.77;;;;;;;;;;4925237;29;20243;-74
2022/05/11 12:32:36;;;;;;;1.77;0.82;;;;;;;;;;4928571;29;20413;-75
2022/05/11 12:35:13;;;;;;;1.55;0.80;;;;;;;;;;4932289;29;20314;-76
2022/05/11 12:37:40;;;;;;;4.05;0.90;;;;;;;;;;4930158;29;20299;-75
2022/05/11 12:40:09;;;;;;;1.35;0.75;;;;;;;;;;4932273;29;20357;-75
2022/05/11 12:42:41;;;;;;;4.05;1.02;;;;;;;;;;4930861;29;20195;-74
2022/05/11 12:45:10;;;;;;;3.03;0.68;;;;;;;;;;4918581;29;20663;-75
2022/05/11 12:47:38;;;;;;;1.92;0.77;;;;;;;;;;4918010;29;20209;-75
2022/05/11 12:50:07;;;;;;;4.38;0.95;;;;;;;;;;4920784;29;20231;-75
2022/05/11 12:52:36;;;;;;;1.85;0.80;;;;;;;;;;4933532;29;20299;-75
2022/05/11 12:55:05;;;;;;;3.17;0.70;;;;;;;;;;4934316;29;20278;-75
2022/05/11 12:57:37;;;;;;;1.80;0.80;;;;;;;;;;4934005;29;20207;-75
2022/05/11 13:00:11;;;;;;;0.82;0.63;;;;;;;;;;4932911;29;20668;-75
2022/05/11 13:02:41;;;;;;;3.35;1.15;;;;;;;;;;4915528;29;20648;-74
2022/05/11 13:05:10;;;;;;;2.58;0.82;;;;;;;;;;4927309;29;20734;-74
2022/05/11 13:07:41;;;;;;;1.27;0.70;;;;;;;;;;4937751;29;20234;-75
2022/05/11 13:10:10;;;;;;;1.63;0.90;;;;;;;;;;4918670;29;20212;-75
2022/05/11 13:12:39;;;;;;;1.05;0.70;;;;;;;;;;4927250;29;20651;-75
2022/05/11 13:15:07;;;;;;;3.55;0.98;;;;;;;;;;4937838;29;20323;-75
2022/05/11 13:17:36;;;;;;;2.55;0.90;;;;;;;;;;4938024;29;20295;-75
2022/05/11 13:20:06;;;;;;;3.30;0.70;;;;;;;;;;4937528;29;20231;-75
2022/05/11 13:22:33;;;;;;;1.58;0.90;;;;;;;;;;4935994;29;20330;-75
2022/05/11 13:25:02;;;;;;;3.58;0.70;;;;;;;;;;4933878;29;20243;-75
2022/05/11 13:27:36;;;;;;;2.63;0.73;;;;;;;;;;4935203;29;20204;-74
2022/05/11 13:30:15;;;;;;;10.20;1.38;;;;;;;;;;4925272;29;20721;-73
2022/05/11 13:32:44;;;;;;;3.35;0.90;;;;;;;;;;4934892;29;20691;-72
2022/05/11 13:35:19;;;;;;;2.95;0.82;;;;;;;;;;4939093;28;20226;-73
2022/05/11 13:37:56;;;;;;;6.05;0.90;;;;;;;;;;4935785;28;20199;-74
2022/05/11 13:40:28;;;;;;;3.42;0.85;;;;;;;;;;4932909;29;20259;-73
2022/05/11 13:42:55;;;;;;;1.08;0.60;;;;;;;;;;4932072;29;20341;-73
2022/05/11 13:45:23;;;;;;;2.25;0.80;;;;;;;;;;4927298;29;20204;-73
2022/05/11 13:50:39;;;;;;;3.30;0.90;;;;;;;;;;4929032;29;20211;-72
2022/05/11 13:53:19;;;;;;;2.05;0.70;;;;;;;;;;4930631;29;20295;-75
2022/05/11 13:56:00;;;;;;;3.78;0.90;;;;;;;;;;4940516;28;20709;-73
2022/05/11 13:58:32;;;;;;;2.10;0.70;;;;;;;;;;4934029;29;20692;-75
2022/05/11 14:01:00;;;;;;;2.47;0.70;;;;;;;;;;4938048;29;20294;-73
2022/05/11 14:03:32;;;;;;;3.50;0.93;;;;;;;;;;4939703;29;20204;-74
2022/05/11 14:05:59;;;;;;;5.13;1.10;;;;;;;;;;4944482;28;20219;-74
2022/05/11 14:08:27;;;;;;;3.95;0.80;;;;;;;;;;4947805;28;20207;-74
2022/05/11 14:10:55;;;;;;;3.35;0.75;;;;;;;;;;4940118;28;20302;-74
2022/05/11 14:13:23;;;;;;;4.72;1.10;;;;;;;;;;4935070;28;20222;-74
2022/05/11 14:15:50;;;;;;;1.20;0.75;;;;;;;;;;4931502;28;20306;-74
2022/05/11 14:18:20;;;;;;;1.20;0.70;;;;;;;;;;4941819;28;20619;-75
2022/05/11 14:20:47;;;;;;;1.63;0.70;;;;;;;;;;4939640;28;20205;-75
2022/05/11 14:23:15;;;;;;;1.77;0.80;;;;;;;;;;4935727;29;20231;-75
2022/05/11 14:25:42;;;;;;;2.08;0.93;;;;;;;;;;4937075;29;20274;-74
2022/05/11 14:28:11;;;;;;;2.15;0.70;;;;;;;;;;4934627;29;20732;-75
2022/05/11 14:30:38;;;;;;;5.00;1.00;;;;;;;;;;4930976;29;20763;-74
2022/05/11 14:33:06;;;;;;;2.55;0.70;;;;;;;;;;4934198;29;20230;-75
2022/05/11 14:35:33;;;;;;;3.15;0.82;;;;;;;;;;4934396;29;20310;-75
2022/05/11 14:38:00;;;;;;;2.88;0.73;;;;;;;;;;4934439;29;20207;-75
2022/05/11 14:40:29;;;;;;;2.25;0.77;;;;;;;;;;4934114;29;20395;-75
2022/05/11 14:42:57;;;;;;;4.20;0.85;;;;;;;;;;4935048;29;20208;-74
2022/05/11 14:45:25;;;;;;;3.88;0.80;;;;;;;;;;4929424;29;20235;-75
2022/05/11 14:47:57;;;;;;;1.30;0.65;;;;;;;;;;4927524;29;20765;-74
2022/05/11 14:50:24;;;;;;;3.42;0.98;;;;;;;;;;4933163;29;20212;-75
2022/05/11 14:52:52;;;;;;;2.65;0.77;;;;;;;;;;4934074;29;20214;-75
2022/05/11 14:55:19;;;;;;;0.95;0.60;;;;;;;;;;4930512;29;20707;-74
2022/05/11 15:03:18;;;;;;;2.53;0.77;;;;;;;;;;4928328;29;20218;-74
2022/05/11 15:05:46;;;;;;;1.42;0.50;;;;;;;;;;4920324;29;20652;-75
2022/05/11 15:08:13;;;;;;;2.03;0.60;;;;;;;;;;4928129;29;20748;-72
2022/05/11 15:10:40;;;;;;;1.50;0.70;;;;;;;;;;4927843;29;20298;-75
2022/05/11 15:15:55;;;;;;;1.67;0.68;;;;;;;;;;4933258;29;20235;-74
2022/05/11 15:18:23;;;;;;;1.83;0.75;;;;;;;;;;4925167;29;20299;-75
2022/05/11 15:20:51;;;;;;;1.65;0.70;;;;;;;;;;4922277;29;20236;-75
2022/05/11 15:23:18;;;;;;;2.13;0.60;;;;;;;;;;4917366;29;20205;-75
2022/05/11 15:25:46;;;;;;;4.60;0.60;;;;;;;;;;4916196;29;20291;-75
2022/05/11 15:28:13;;;;;;;4.30;0.70;;;;;;;;;;4916183;29;20251;-75
2022/05/11 15:30:42;;;;;;;0.60;0.40;;;;;;;;;;4915825;29;20279;-73
2022/05/11 15:33:14;;;;;;;2.45;0.60;;;;;;;;;;4931192;29;20246;-74
2022/05/11 15:35:42;;;;;;;2.25;0.88;;;;;;;;;;4922662;29;20224;-75
2022/05/11 15:38:10;;;;;;;2.58;0.60;;;;;;;;;;4927871;29;20204;-73
2022/05/11 15:40:37;;;;;;;2.85;0.60;;;;;;;;;;4935096;29;20295;-74
2022/05/11 15:43:06;;;;;;;3.17;1.00;;;;;;;;;;4935980;29;20199;-74
2022/05/11 15:45:34;;;;;;;1.30;0.75;;;;;;;;;;4939186;28;20196;-74
2022/05/11 15:48:03;;;;;;;1.85;0.90;;;;;;;;;;4929938;29;20299;-74
2022/05/11 15:50:32;;;;;;;4.75;1.40;;;;;;;;;;4923890;29;20212;-74
2022/05/11 15:52:59;;;;;;;2.25;0.80;;;;;;;;;;4923739;29;20242;-74
2022/05/11 15:55:28;;;;;;;2.88;1.02;;;;;;;;;;4926918;29;20238;-74
2022/05/11 15:57:55;;;;;;;1.08;0.93;;;;;;;;;;4933019;29;20290;-74
2022/05/11 16:00:25;;;;;;;4.47;0.82;;;;;;;;;;4933572;29;20235;-75
2022/05/11 16:03:11;;;;;;;4.78;1.00;;;;;;;;;;5578289;23;20208;-74
2022/05/11 16:05:39;;;;;;;1.33;0.70;;;;;;;;;;4573444;29;10001125;-75
2022/05/11 16:08:07;;;;;;;1.95;0.70;;;;;;;;;;4931771;29;20833;-73
2022/05/11 16:10:35;;;;;;;5.97;0.80;;;;;;;;;;4932560;29;20204;-74
2022/05/11 16:13:03;;;;;;;1.58;0.65;;;;;;;;;;4932933;29;20328;-74
2022/05/11 16:15:30;;;;;;;2.70;0.90;;;;;;;;;;4933061;29;20310;-74
2022/05/11 16:20:43;;;;;;;3.17;0.80;;;;;;;;;;4932991;29;20571;-74
2022/05/11 16:23:11;;;;;;;4.60;1.15;;;;;;;;;;4931159;29;20566;-73
2022/05/11 16:25:39;;;;;;;3.80;1.00;;;;;;;;;;4932530;29;20204;-73
2022/05/11 16:28:06;;;;;;;3.50;1.27;;;;;;;;;;4932971;29;20200;-73
2022/05/11 16:30:34;;;;;;;3.85;0.75;;;;;;;;;;4933372;29;20670;-73
2022/05/11 16:33:01;;;;;;;3.10;0.75;;;;;;;;;;4933237;29;20200;-74
2022/05/11 16:35:28;;;;;;;3.58;0.90;;;;;;;;;;4934520;29;20274;-74
2022/05/11 16:37:57;;;;;;;4.07;0.93;;;;;;;;;;4932774;29;20311;-75
2022/05/11 16:40:24;;;;;;;3.13;1.38;;;;;;;;;;4936432;29;20208;-74
2022/05/11 16:42:51;;;;;;;4.35;1.25;;;;;;;;;;4936559;29;20287;-75
2022/05/11 16:45:19;;;;;;;0.95;0.60;;;;;;;;;;4936651;29;20288;-74
2022/05/11 16:47:46;;;;;;;2.05;0.88;;;;;;;;;;4936676;29;20221;-74
2022/05/11 16:50:14;;;;;;;7.13;1.23;;;;;;;;;;4936664;29;20211;-74
2022/05/11 16:52:41;;;;;;;1.20;0.70;;;;;;;;;;4936222;29;20742;-73
2022/05/11 16:55:10;;;;;;;3.42;0.90;;;;;;;;;;4936267;29;20699;-73
2022/05/11 16:57:38;;;;;;;2.75;0.80;;;;;;;;;;4935984;29;20204;-73
2022/05/11 17:00:06;;;;;;;3.53;1.20;;;;;;;;;;4937135;29;20208;-73
2022/05/11 17:02:33;;;;;;;2.90;1.05;;;;;;;;;;4936233;29;20663;-73
2022/05/11 17:05:02;;;;;;;3.22;0.93;;;;;;;;;;4950438;29;20257;-74
2022/05/11 17:07:30;;;;;;;3.05;1.00;;;;;;;;;;4952300;29;20226;-73
2022/05/11 17:09:59;;;;;;;3.45;1.00;;;;;;;;;;4954925;29;20205;-74
2022/05/11 17:12:28;;;;;;;1.52;0.88;;;;;;;;;;4956611;29;20672;-73
2022/05/11 17:14:55;;;;;;;1.88;0.95;;;;;;;;;;4956345;29;20207;-73
2022/05/11 17:17:23;;;;;;;3.72;1.52;;;;;;;;;;4956366;28;20387;-74
2022/05/11 17:19:50;;;;;;;6.22;0.93;;;;;;;;;;4953734;28;20215;-74
2022/05/11 17:22:18;;;;;;;1.65;0.90;;;;;;;;;;4952665;29;20235;-74
2022/05/11 17:24:46;;;;;;;4.38;1.25;;;;;;;;;;4950889;29;20202;-73
2022/05/11 17:27:13;;;;;;;3.63;1.23;;;;;;;;;;4952068;29;20203;-74
2022/05/11 17:29:42;;;;;;;2.53;1.08;;;;;;;;;;4949386;29;20204;-72
2022/05/11 17:32:09;;;;;;;7.38;1.25;;;;;;;;;;4953729;28;20282;-75
2022/05/11 17:34:36;;;;;;;3.30;1.25;;;;;;;;;;4951678;28;20229;-75
2022/05/11 17:37:04;;;;;;;4.57;1.35;;;;;;;;;;4955536;29;20250;-75
2022/05/11 17:39:31;;;;;;;4.18;1.30;;;;;;;;;;4955965;28;20286;-75
2022/05/11 17:41:59;;;;;;;2.58;1.10;;;;;;;;;;4955866;28;20205;-75
2022/05/11 17:44:26;;;;;;;2.88;1.10;;;;;;;;;;4955406;29;20270;-75
2022/05/11 17:46:55;;;;;;;3.17;1.30;;;;;;;;;;4955207;29;20227;-75
2022/05/11 17:49:22;;;;;;;5.68;1.33;;;;;;;;;;4953777;28;20246;-74
2022/05/11 17:51:51;;;;;;;4.45;1.38;;;;;;;;;;4954916;28;20286;-74
2022/05/11 17:54:19;;;;;;;3.20;1.45;;;;;;;;;;4955753;29;20206;-75
2022/05/11 17:56:47;;;;;;;2.23;1.30;;;;;;;;;;4955476;29;20772;-75
2022/05/11 17:59:14;;;;;;;5.00;1.30;;;;;;;;;;4955023;29;20282;-75
2022/05/11 18:01:41;;;;;;;3.33;1.50;;;;;;;;;;4954953;29;20230;-76
2022/05/11 18:04:13;;;;;;;3.03;1.43;;;;;;;;;;4953962;28;20278;-75
2022/05/11 18:06:41;;;;;;;2.73;1.50;;;;;;;;;;4954361;29;20628;-75
2022/05/11 18:09:09;;;;;;;4.37;1.53;;;;;;;;;;4950858;29;20577;-75
2022/05/11 18:11:36;;;;;;;5.77;1.40;;;;;;;;;;4954198;28;20238;-76
2022/05/11 18:14:04;;;;;;;4.50;1.60;;;;;;;;;;4954972;29;20282;-74
2022/05/11 18:16:32;;;;;;;4.10;1.60;;;;;;;;;;4954062;29;20314;-74
2022/05/11 18:18:59;;;;;;;4.43;1.67;;;;;;;;;;4946780;29;20202;-74
2022/05/11 18:21:28;;;;;;;3.67;1.50;;;;;;;;;;4951927;28;20207;-74
2022/05/11 18:23:55;;;;;;;3.67;1.60;;;;;;;;;;4952192;29;20553;-74
2022/05/11 18:26:22;;;;;;;4.47;1.63;;;;;;;;;;4951421;28;20199;-74
2022/05/11 18:28:49;;;;;;;6.10;1.87;;;;;;;;;;4950008;29;20286;-73
2022/05/11 18:31:17;;;;;;;6.77;2.23;;;;;;;;;;4951719;29;20574;-73
2022/05/11 18:33:44;;;;;;;3.53;1.80;;;;;;;;;;4950281;28;20203;-73
2022/05/11 18:36:11;;;;;;;5.53;1.80;;;;;;;;;;4951076;29;20574;-74
2022/05/11 18:38:40;;;;;;;5.50;1.80;;;;;;;;;;4952155;28;20594;-74
2022/05/11 18:41:07;;;;;;;7.20;1.97;;;;;;;;;;4951306;29;20235;-73
2022/05/11 18:43:34;;;;;;;5.40;2.00;;;;;;;;;;4951721;28;20217;-73
2022/05/11 18:46:02;;;;;;;5.97;2.10;;;;;;;;;;4950369;28;20199;-73
2022/05/11 18:48:30;;;;;;;3.33;1.60;;;;;;;;;;4951375;29;20290;-73
2022/05/11 18:50:57;;;;;;;8.80;2.20;;;;;;;;;;4951122;29;20706;-74
2022/05/11 18:53:24;;;;;;;5.43;2.03;;;;;;;;;;4951085;29;20705;-74
2022/05/11 18:55:53;;;;;;;8.20;2.20;;;;;;;;;;4949583;28;20702;-74
2022/05/11 18:58:20;;;;;;;5.80;2.30;;;;;;;;;;4948310;28;20249;-73
2022/05/11 19:00:47;;;;;;;5.90;1.93;;;;;;;;;;4952215;28;20298;-74
2022/05/11 19:03:15;;;;;;;7.20;2.10;;;;;;;;;;4945220;28;20207;-73
2022/05/11 19:05:42;;;;;;;4.67;1.70;;;;;;;;;;4951205;28;20223;-74
2022/05/11 19:08:10;;;;;;;7.13;2.13;;;;;;;;;;4950535;28;20290;-73
2022/05/11 19:10:37;;;;;;;6.47;2.27;;;;;;;;;;4950219;28;20195;-74
2022/05/11 19:13:07;;;;;;;5.13;2.03;;;;;;;;;;4950425;28;20227;-74
2022/05/11 19:15:34;;;;;;;5.50;2.20;;;;;;;;;;4950267;29;20229;-73
2022/05/11 19:18:01;;;;;;;5.40;2.03;;;;;;;;;;4949729;29;20322;-73
2022/05/11 19:20:30;;;;;;;6.60;2.40;;;;;;;;;;4950705;29;20203;-74
2022/05/11 19:22:59;;;;;;;4.87;2.00;;;;;;;;;;4949879;29;20313;-73
2022/05/11 19:25:26;;;;;;;8.03;2.03;;;;;;;;;;4950890;28;20265;-74
2022/05/11 19:27:54;;;;;;;4.07;1.90;;;;;;;;;;4953758;28;20205;-74
2022/05/11 19:30:22;;;;;;;6.23;2.07;;;;;;;;;;4947722;28;20302;-73
2022/05/11 19:32:50;;;;;;;5.33;2.40;;;;;;;;;;4949796;28;20303;-73
2022/05/11 19:35:17;;;;;;;6.80;2.00;;;;;;;;;;4949277;29;20230;-74
2022/05/11 19:37:44;;;;;;;5.00;2.00;;;;;;;;;;4949728;29;20310;-74
2022/05/11 19:40:13;;;;;;;7.37;2.23;;;;;;;;;;4949577;28;20245;-73
2022/05/11 19:42:40;;;;;;;10.73;2.30;;;;;;;;;;4948343;28;20298;-74
2022/05/11 19:45:08;;;;;;;9.20;2.17;;;;;;;;;;4949860;29;20297;-73
2022/05/11 19:47:37;;;;;;;6.03;2.10;;;;;;;;;;4949853;29;20191;-74
2022/05/11 19:50:04;;;;;;;7.10;2.30;;;;;;;;;;4949511;29;20835;-74
2022/05/11 19:52:34;;;;;;;5.87;2.13;;;;;;;;;;4947432;29;20286;-74
2022/05/11 19:55:02;;;;;;;7.60;1.97;;;;;;;;;;4949812;29;20202;-74
2022/05/11 19:57:29;;;;;;;5.77;2.10;;;;;;;;;;4949004;28;20228;-73
2022/05/11 19:59:56;;;;;;;5.67;2.10;;;;;;;;;;4949802;29;20209;-74
2022/05/11 20:02:23;;;;;;;6.43;2.20;;;;;;;;;;4948696;28;20685;-74
2022/05/11 20:04:53;;;;;;;5.43;2.00;;;;;;;;;;4948968;28;20247;-74
2022/05/11 20:07:25;;;;;;;7.83;2.10;;;;;;;;;;4950022;29;20306;-74
2022/05/11 20:09:52;;;;;;;7.67;2.17;;;;;;;;;;4946953;29;20252;-73
2022/05/11 20:12:22;;;;;;;5.57;2.00;;;;;;;;;;4949445;28;20290;-73
2022/05/11 20:14:49;;;;;;;8.03;1.90;;;;;;;;;;4952858;28;20590;-73
2022/05/11 20:17:16;;;;;;;6.40;1.67;;;;;;;;;;4953927;29;20314;-74
2022/05/11 20:19:44;;;;;;;6.77;1.70;;;;;;;;;;4953973;29;20211;-73
2022/05/11 20:22:15;;;;;;;5.53;1.57;;;;;;;;;;4952910;29;20294;-73
2022/05/11 20:24:43;;;;;;;8.07;1.57;;;;;;;;;;4952483;29;20625;-73
2022/05/11 20:27:10;;;;;;;7.27;1.40;;;;;;;;;;4953402;28;20245;-74
2022/05/11 20:29:37;;;;;;;5.00;1.40;;;;;;;;;;4953864;28;20211;-74
2022/05/11 20:35:08;;;;;;;5.13;1.50;;;;;;;;;;4953101;28;20206;-73
2022/05/11 20:37:41;;;;;;;7.50;1.40;;;;;;;;;;4948280;29;20235;-73
2022/05/11 20:40:10;;;;;;;1.93;1.00;;;;;;;;;;4946990;29;20618;-74
2022/05/11 20:42:38;;;;;;;4.37;1.37;;;;;;;;;;4952216;28;20350;-73
2022/05/11 20:45:06;;;;;;;3.90;1.27;;;;;;;;;;4952387;29;20683;-73
2022/05/11 20:47:33;;;;;;;3.10;1.00;;;;;;;;;;4954491;29;20278;-73
2022/05/11 20:50:00;;;;;;;4.87;1.50;;;;;;;;;;4952874;29;20929;-74
2022/05/11 20:52:27;;;;;;;3.80;1.07;;;;;;;;;;4954600;28;20287;-74
2022/05/11 20:54:56;;;;;;;5.50;1.43;;;;;;;;;;4955200;29;20294;-73
2022/05/11 20:57:23;;;;;;;4.87;1.40;;;;;;;;;;4954690;29;20227;-73
2022/05/11 21:10:35;;;;;;;4.17;1.10;;;;;;;;;;4925473;28;20227;-72
2022/05/11 21:13:03;;;;;;;6.27;1.30;;;;;;;;;;4955604;29;20242;-74
2022/05/11 21:15:31;;;;;;;6.13;1.47;;;;;;;;;;4956787;29;20203;-75
2022/05/11 21:17:58;;;;;;;4.77;1.10;;;;;;;;;;4956551;28;20235;-74
2022/05/11 21:20:26;;;;;;;7.27;1.30;;;;;;;;;;4956352;29;20373;-74
2022/05/11 21:22:54;;;;;;;5.10;1.30;;;;;;;;;;4955413;29;20295;-73
2022/05/11 21:25:21;;;;;;;4.67;1.30;;;;;;;;;;4955769;28;20242;-74
2022/05/11 21:27:50;;;;;;;5.70;1.33;;;;;;;;;;4956663;29;20262;-74
2022/05/11 21:30:19;;;;;;;9.83;1.70;;;;;;;;;;4956329;29;20290;-74
2022/05/11 21:32:46;;;;;;;6.17;1.67;;;;;;;;;;4956054;29;20195;-74
2022/05/11 21:35:14;;;;;;;7.07;1.80;;;;;;;;;;4956017;29;20305;-74
2022/05/11 21:37:42;;;;;;;7.73;1.50;;;;;;;;;;4955303;29;20223;-74
2022/05/11 21:40:10;;;;;;;8.23;1.50;;;;;;;;;;4956710;29;20290;-74
2022/05/11 21:42:39;;;;;;;8.73;1.60;;;;;;;;;;4956419;29;20199;-73
2022/05/11 21:45:08;;;;;;;8.47;1.50;;;;;;;;;;4956294;28;20199;-74
2022/05/11 21:47:35;;;;;;;6.13;1.53;;;;;;;;;;4955378;29;20231;-73
2022/05/11 21:50:03;;;;;;;7.23;1.57;;;;;;;;;;4951115;29;20286;-73
2022/05/11 21:52:30;;;;;;;6.80;1.60;;;;;;;;;;4954601;29;20289;-73
2022/05/11 21:54:57;;;;;;;7.80;1.70;;;;;;;;;;4955472;28;20289;-73
2022/05/11 21:57:24;;;;;;;6.20;1.60;;;;;;;;;;4954996;29;20257;-73
2022/05/11 21:59:52;;;;;;;7.20;1.53;;;;;;;;;;4954963;28;20195;-73
2022/05/11 22:02:20;;;;;;;6.97;1.63;;;;;;;;;;4955440;29;20296;-73
2022/05/11 22:04:48;;;;;;;5.77;1.23;;;;;;;;;;4955247;29;20294;-73
2022/05/11 22:07:16;;;;;;;4.83;1.40;;;;;;;;;;4953640;29;20693;-73
2022/05/11 22:09:43;;;;;;;6.67;1.53;;;;;;;;;;4943991;29;20318;-73
2022/05/11 22:12:11;;;;;;;10.10;1.70;;;;;;;;;;4955268;29;20261;-73
2022/05/11 22:14:38;;;;;;;9.17;1.80;;;;;;;;;;4954607;29;20213;-73
2022/05/11 22:17:06;;;;;;;8.50;1.60;;;;;;;;;;4955182;29;20314;-73
2022/05/11 22:19:35;;;;;;;7.80;1.63;;;;;;;;;;4955061;29;20238;-72
2022/05/11 22:22:02;;;;;;;6.40;1.77;;;;;;;;;;4955017;29;20331;-73
2022/05/11 22:24:29;;;;;;;6.97;1.30;;;;;;;;;;4954053;29;20294;-73
2022/05/11 22:26:56;;;;;;;6.83;1.50;;;;;;;;;;4953918;29;20282;-74
2022/05/11 22:29:23;;;;;;;7.03;1.73;;;;;;;;;;4953907;29;20234;-73
2022/05/11 22:31:52;;;;;;;9.60;1.70;;;;;;;;;;4954007;29;20870;-73
2022/05/11 22:34:20;;;;;;;7.93;1.40;;;;;;;;;;4954019;29;20298;-73
2022/05/11 22:36:51;;;;;;;8.70;1.60;;;;;;;;;;4952305;28;20290;-73
2022/05/11 22:39:18;;;;;;;9.60;1.80;;;;;;;;;;4955288;28;20357;-73
2022/05/11 22:41:45;;;;;;;8.47;1.70;;;;;;;;;;4955165;29;20241;-73
2022/05/11 22:44:12;;;;;;;11.00;1.70;;;;;;;;;;4955211;28;20294;-73
2022/05/11 22:46:40;;;;;;;6.77;1.73;;;;;;;;;;4955568;28;20235;-73
2022/05/11 22:49:07;;;;;;;9.60;1.67;;;;;;;;;;4955535;28;20911;-73
2022/05/11 22:51:35;;;;;;;9.73;1.97;;;;;;;;;;4954500;28;20199;-73
2022/05/11 22:54:03;;;;;;;7.97;1.80;;;;;;;;;;4954544;29;20310;-73
2022/05/11 22:56:31;;;;;;;9.27;1.87;;;;;;;;;;4953829;29;20246;-73
2022/05/11 22:58:58;;;;;;;9.40;2.00;;;;;;;;;;4954871;29;20318;-73
2022/05/11 23:01:25;;;;;;;9.20;1.97;;;;;;;;;;4954742;29;20209;-73
2022/05/11 23:03:53;;;;;;;8.87;1.57;;;;;;;;;;4954414;28;20310;-73
2022/05/11 23:06:20;;;;;;;8.43;1.97;;;;;;;;;;4954435;28;20255;-73
2022/05/11 23:08:49;;;;;;;9.37;1.80;;;;;;;;;;4957070;28;20250;-73
2022/05/11 23:11:18;;;;;;;10.90;1.93;;;;;;;;;;4974064;28;20203;-73
2022/05/11 23:13:45;;;;;;;9.07;1.73;;;;;;;;;;4973821;28;20285;-73
2022/05/11 23:16:13;;;;;;;9.63;2.00;;;;;;;;;;4973659;28;20297;-73
2022/05/11 23:18:40;;;;;;;10.47;2.50;;;;;;;;;;4973811;28;20226;-73
2022/05/11 23:21:07;;;;;;;9.43;2.10;;;;;;;;;;4973510;28;20238;-74
2022/05/11 23:23:34;;;;;;;8.63;2.00;;;;;;;;;;4974045;28;20285;-73
2022/05/11 23:26:02;;;;;;;8.40;1.93;;;;;;;;;;4973523;28;20546;-73
2022/05/11 23:28:30;;;;;;;11.20;1.80;;;;;;;;;;4974066;28;20639;-73
2022/05/11 23:30:57;;;;;;;13.03;2.07;;;;;;;;;;4973539;28;20653;-73
2022/05/11 23:33:25;;;;;;;11.43;2.23;;;;;;;;;;4973682;28;20230;-73
2022/05/11 23:35:52;;;;;;;8.43;2.20;;;;;;;;;;4973049;28;20316;-73
2022/05/11 23:38:19;;;;;;;9.80;1.97;;;;;;;;;;4973617;28;20685;-73
2022/05/11 23:40:46;;;;;;;12.20;2.50;;;;;;;;;;4973635;28;20296;-73
2022/05/11 23:43:14;;;;;;;10.97;2.10;;;;;;;;;;4973554;28;20693;-73
2022/05/11 23:45:42;;;;;;;7.93;1.60;;;;;;;;;;4973534;28;20245;-73
2022/05/11 23:48:11;;;;;;;11.47;2.20;;;;;;;;;;4973025;28;20226;-73
2022/05/11 23:50:39;;;;;;;10.10;2.40;;;;;;;;;;4973703;28;20209;-71
2022/05/11 23:53:07;;;;;;;9.73;2.00;;;;;;;;;;4972690;28;20238;-73
2022/05/11 23:55:34;;;;;;;9.00;2.10;;;;;;;;;;4973149;28;20234;-73
2022/05/11 23:58:01;;;;;;;8.00;1.87;;;;;;;;;;4972470;28;20218;-73
